Time;durP1;ratioP1;P1;durP2;ratioP2;P2;SDS_P1;SDS_P2;PMS_P1;PMS_P2;Temp;Humidity;BMP_temperature;BMP_pressure;BME280_temperature;BME280_humidity;BME280_pressure;Samples;Min_cycle;Max_cycle;Signal;HPM_P1;HPM_P2
2022/03/09 00:00:19;;;;;;;18.27;11.90;;;2.60;68.10;;;;;;5113461;28;20227;-67
2022/03/09 00:02:46;;;;;;;19.80;11.75;;;2.60;68.50;;;;;;5113428;28;20302;-67
2022/03/09 00:05:15;;;;;;;18.08;11.35;;;2.50;68.60;;;;;;5113275;28;20205;-67
2022/03/09 00:07:42;;;;;;;16.50;11.02;;;2.50;68.90;;;;;;5113286;28;20201;-67
2022/03/09 00:10:09;;;;;;;18.23;12.15;;;2.50;69.30;;;;;;5113338;28;20204;-67
2022/03/09 00:12:36;;;;;;;15.05;9.77;;;2.40;69.10;;;;;;5113363;28;20205;-66
2022/03/09 00:15:03;;;;;;;15.40;9.82;;;2.50;68.60;;;;;;5113458;28;20201;-67
2022/03/09 00:17:30;;;;;;;13.93;8.75;;;2.40;68.00;;;;;;5113203;28;20201;-66
2022/03/09 00:19:57;;;;;;;14.70;8.65;;;2.40;67.90;;;;;;5112874;28;20659;-67
2022/03/09 00:22:25;;;;;;;12.43;8.90;;;2.30;68.50;;;;;;5113033;28;20719;-67
2022/03/09 00:24:52;;;;;;;10.77;8.18;;;2.20;68.90;;;;;;5113124;28;20204;-67
2022/03/09 00:27:19;;;;;;;15.13;9.50;;;2.20;69.20;;;;;;5113070;28;20328;-67
2022/03/09 00:29:46;;;;;;;11.48;8.45;;;2.10;68.80;;;;;;5112788;28;20297;-67
2022/03/09 00:32:13;;;;;;;12.07;8.30;;;2.10;68.30;;;;;;5112709;28;20222;-67
2022/03/09 00:34:40;;;;;;;13.82;8.55;;;2.10;67.90;;;;;;5112901;28;20201;-67
2022/03/09 00:37:07;;;;;;;14.50;8.40;;;2.10;67.80;;;;;;5113000;28;20577;-67
2022/03/09 00:39:35;;;;;;;15.15;9.45;;;2.10;67.80;;;;;;5112778;28;20292;-67
2022/03/09 00:42:02;;;;;;;14.73;8.75;;;2.10;68.00;;;;;;5112614;28;20312;-67
2022/03/09 00:44:29;;;;;;;15.10;9.48;;;2.10;68.00;;;;;;5112992;28;20227;-67
2022/03/09 00:46:55;;;;;;;13.00;8.75;;;2.10;67.70;;;;;;5112560;28;20221;-66
2022/03/09 00:49:22;;;;;;;11.00;7.78;;;2.20;67.90;;;;;;5111908;28;20292;-64
2022/03/09 00:51:49;;;;;;;15.75;9.15;;;2.20;67.50;;;;;;5112403;28;20227;-66
2022/03/09 00:54:16;;;;;;;12.73;9.80;;;2.10;67.70;;;;;;5112795;28;20288;-67
2022/03/09 00:56:44;;;;;;;17.45;11.48;;;1.70;68.60;;;;;;5112728;28;20206;-66
2022/03/09 00:59:11;;;;;;;15.43;10.63;;;1.50;70.10;;;;;;5112602;28;20205;-67
2022/03/09 01:01:38;;;;;;;13.93;10.23;;;1.50;71.10;;;;;;5112180;28;20228;-67
2022/03/09 01:04:05;;;;;;;14.35;10.07;;;1.60;72.00;;;;;;5112334;28;20225;-67
2022/03/09 01:06:32;;;;;;;19.17;11.65;;;1.80;72.80;;;;;;5125611;28;20610;-67
2022/03/09 01:08:59;;;;;;;17.90;11.32;;;1.90;73.00;;;;;;5133144;28;20313;-67
2022/03/09 01:11:26;;;;;;;17.15;10.68;;;1.90;72.60;;;;;;5133898;28;20231;-68
2022/03/09 01:13:54;;;;;;;17.58;9.48;;;2.00;72.60;;;;;;5134064;28;20193;-67
2022/03/09 01:16:21;;;;;;;15.80;10.23;;;2.00;71.50;;;;;;5134458;28;20299;-67
2022/03/09 01:18:48;;;;;;;16.55;10.73;;;2.00;71.00;;;;;;5134514;28;20750;-67
2022/03/09 01:21:15;;;;;;;16.55;10.55;;;1.90;71.70;;;;;;5134258;28;20221;-66
2022/03/09 01:23:42;;;;;;;16.58;11.15;;;1.90;72.00;;;;;;5134361;28;20220;-67
2022/03/09 01:26:08;;;;;;;17.35;11.50;;;1.90;72.60;;;;;;5134493;28;20209;-67
2022/03/09 01:28:35;;;;;;;14.55;10.35;;;1.90;73.10;;;;;;5134361;28;20234;-67
2022/03/09 01:31:03;;;;;;;21.75;11.95;;;1.90;72.90;;;;;;5133829;28;20307;-67
2022/03/09 01:33:30;;;;;;;15.07;10.55;;;2.00;73.00;;;;;;5134334;28;20196;-67
2022/03/09 01:35:57;;;;;;;15.45;10.52;;;1.90;72.80;;;;;;5134307;28;20196;-67
2022/03/09 01:38:24;;;;;;;14.85;10.07;;;1.90;72.90;;;;;;5134313;28;20201;-67
2022/03/09 01:40:51;;;;;;;13.43;9.10;;;1.80;72.90;;;;;;5133912;28;20602;-67
2022/03/09 01:43:18;;;;;;;16.77;10.45;;;1.70;72.90;;;;;;5134422;28;20216;-67
2022/03/09 01:45:45;;;;;;;17.30;11.02;;;1.70;72.90;;;;;;5134240;28;20269;-67
2022/03/09 01:48:13;;;;;;;14.90;10.70;;;1.60;72.70;;;;;;5134240;27;20209;-67
2022/03/09 01:50:41;;;;;;;14.27;9.95;;;1.60;72.90;;;;;;5133851;28;20225;-66
2022/03/09 01:53:07;;;;;;;14.93;9.05;;;1.60;73.30;;;;;;5134228;28;20593;-67
2022/03/09 01:55:34;;;;;;;17.00;9.60;;;1.60;73.40;;;;;;5134073;27;20201;-67
2022/03/09 01:58:01;;;;;;;15.07;9.80;;;1.60;73.10;;;;;;5133844;28;20295;-67
2022/03/09 02:00:28;;;;;;;14.45;9.95;;;1.60;73.30;;;;;;5134110;27;20252;-67
2022/03/09 02:02:55;;;;;;;14.02;9.30;;;1.60;73.20;;;;;;5137895;27;20235;-67
2022/03/09 02:05:23;;;;;;;12.68;8.63;;;1.70;72.70;;;;;;5137861;27;20235;-67
2022/03/09 02:10:34;;;;;;;16.13;9.68;;;1.70;72.60;;;;;;5137386;27;20291;-67
2022/03/09 02:13:01;;;;;;;16.20;10.57;;;1.70;72.40;;;;;;5137746;27;20209;-67
2022/03/09 02:15:28;;;;;;;14.05;9.35;;;1.70;72.60;;;;;;5137677;27;20203;-67
2022/03/09 02:17:55;;;;;;;13.00;9.43;;;1.70;73.10;;;;;;5137645;27;20308;-67
2022/03/09 02:20:23;;;;;;;14.75;9.60;;;1.70;73.60;;;;;;5137273;27;20226;-67
2022/03/09 02:22:53;;;;;;;17.15;9.98;;;1.70;73.50;;;;;;5137554;27;20201;-67
2022/03/09 02:25:20;;;;;;;13.32;10.30;;;1.80;73.50;;;;;;5137443;27;20243;-67
2022/03/09 02:27:47;;;;;;;13.05;9.23;;;1.50;72.90;;;;;;5137146;27;20219;-67
2022/03/09 02:30:15;;;;;;;15.90;9.57;;;1.40;73.60;;;;;;5136995;27;20205;-67
2022/03/09 02:32:42;;;;;;;13.25;8.50;;;1.40;74.20;;;;;;5137078;27;20207;-66
2022/03/09 02:35:10;;;;;;;15.95;9.73;;;1.40;74.60;;;;;;5137545;27;20201;-67
2022/03/09 02:37:37;;;;;;;14.05;8.82;;;1.50;75.30;;;;;;5137200;27;20243;-67
2022/03/09 02:40:07;;;;;;;15.25;9.75;;;1.60;75.30;;;;;;5137233;27;20197;-67
2022/03/09 02:42:34;;;;;;;13.88;9.73;;;1.50;75.00;;;;;;5136953;27;20191;-67
2022/03/09 02:45:01;;;;;;;16.08;10.80;;;1.50;75.30;;;;;;5137041;27;20316;-67
2022/03/09 02:47:28;;;;;;;15.95;10.30;;;1.60;75.10;;;;;;5137080;27;20222;-67
2022/03/09 02:49:55;;;;;;;13.80;9.43;;;1.60;74.90;;;;;;5136786;27;20296;-67
2022/03/09 02:52:22;;;;;;;14.25;10.23;;;1.60;75.10;;;;;;5136984;27;20209;-67
2022/03/09 02:54:49;;;;;;;14.88;10.48;;;1.70;75.30;;;;;;5136694;27;20658;-67
2022/03/09 02:57:17;;;;;;;13.35;9.13;;;1.70;74.80;;;;;;5136860;27;20200;-67
2022/03/09 02:59:44;;;;;;;14.93;9.05;;;1.60;74.40;;;;;;5136597;27;20229;-67
2022/03/09 03:02:10;;;;;;;14.05;9.27;;;1.70;74.50;;;;;;5136737;27;20275;-67
2022/03/09 03:04:37;;;;;;;13.30;8.52;;;1.70;74.60;;;;;;5136629;27;20220;-67
2022/03/09 03:07:04;;;;;;;13.43;9.10;;;1.70;75.20;;;;;;5136717;27;20201;-67
2022/03/09 03:09:32;;;;;;;14.73;9.98;;;1.50;75.60;;;;;;5136646;27;20304;-67
2022/03/09 03:11:58;;;;;;;14.82;9.38;;;1.60;75.90;;;;;;5135501;27;20223;-67
2022/03/09 03:14:27;;;;;;;13.60;9.13;;;1.50;75.40;;;;;;5136138;27;20658;-67
2022/03/09 03:16:53;;;;;;;14.88;9.40;;;1.50;75.50;;;;;;5136413;27;20292;-67
2022/03/09 03:19:20;;;;;;;14.68;9.00;;;1.40;75.70;;;;;;5136252;27;20201;-67
2022/03/09 03:21:47;;;;;;;14.68;9.13;;;1.30;76.10;;;;;;5135914;27;20221;-67
2022/03/09 03:24:14;;;;;;;15.45;9.90;;;1.30;76.50;;;;;;5136289;27;20227;-67
2022/03/09 03:26:40;;;;;;;13.88;9.32;;;1.40;76.70;;;;;;5136048;27;20295;-67
2022/03/09 03:29:07;;;;;;;13.38;9.40;;;1.40;76.90;;;;;;5136243;27;20295;-67
2022/03/09 03:31:35;;;;;;;22.15;10.40;;;1.40;77.10;;;;;;5135756;27;20637;-67
2022/03/09 03:34:02;;;;;;;12.65;9.35;;;1.30;77.10;;;;;;5136095;27;20201;-67
2022/03/09 03:36:29;;;;;;;14.13;9.70;;;1.30;77.40;;;;;;5136147;27;20694;-67
2022/03/09 03:38:56;;;;;;;14.15;9.73;;;1.20;77.80;;;;;;5136073;27;20200;-67
2022/03/09 03:41:23;;;;;;;15.98;9.75;;;1.20;78.30;;;;;;5135489;27;20225;-67
2022/03/09 03:43:49;;;;;;;16.25;9.05;;;1.10;78.10;;;;;;5135940;27;20306;-67
2022/03/09 03:46:16;;;;;;;16.70;9.75;;;1.10;78.20;;;;;;5135800;27;20767;-67
2022/03/09 03:48:44;;;;;;;14.32;9.57;;;1.10;78.30;;;;;;5135624;27;20296;-67
2022/03/09 03:51:11;;;;;;;15.15;10.60;;;1.10;78.30;;;;;;5135628;27;20217;-67
2022/03/09 03:53:38;;;;;;;14.98;9.70;;;1.00;78.70;;;;;;5135836;27;20204;-66
2022/03/09 03:56:06;;;;;;;15.70;10.00;;;1.00;78.70;;;;;;5135896;27;20204;-67
2022/03/09 03:58:33;;;;;;;14.63;10.35;;;0.90;78.50;;;;;;5135614;27;20296;-67
2022/03/09 04:01:00;;;;;;;15.30;10.30;;;0.70;79.20;;;;;;5135140;27;20224;-67
2022/03/09 04:03:27;;;;;;;13.60;9.38;;;0.80;80.50;;;;;;5135580;27;20201;-67
2022/03/09 04:05:55;;;;;;;14.85;10.00;;;0.80;79.60;;;;;;5135273;27;20690;-66
2022/03/09 04:08:22;;;;;;;19.95;10.45;;;0.90;79.90;;;;;;5135496;27;20204;-67
2022/03/09 04:10:48;;;;;;;14.48;9.80;;;1.00;80.20;;;;;;5135037;27;20648;-67
2022/03/09 04:13:15;;;;;;;15.10;9.95;;;0.90;79.90;;;;;;5135393;27;20291;-66
2022/03/09 04:15:42;;;;;;;13.88;10.40;;;0.90;80.30;;;;;;5135325;27;20704;-67
2022/03/09 04:18:09;;;;;;;13.57;9.90;;;0.90;80.60;;;;;;5135293;27;20201;-66
2022/03/09 04:20:36;;;;;;;14.57;11.00;;;1.00;81.10;;;;;;5134883;27;20223;-67
2022/03/09 04:23:08;;;;;;;13.55;9.50;;;1.00;81.00;;;;;;5135278;27;20289;-67
2022/03/09 04:25:35;;;;;;;14.85;10.45;;;1.00;81.10;;;;;;5135053;27;20579;-67
2022/03/09 04:28:02;;;;;;;13.90;9.73;;;1.00;81.10;;;;;;5134776;27;20684;-66
2022/03/09 04:30:29;;;;;;;16.73;10.93;;;1.10;80.60;;;;;;5134851;27;20223;-67
2022/03/09 04:32:56;;;;;;;14.73;10.27;;;1.10;80.70;;;;;;5135105;27;20287;-67
2022/03/09 04:35:23;;;;;;;17.38;10.57;;;1.10;80.60;;;;;;5134985;27;20197;-67
2022/03/09 04:37:50;;;;;;;16.77;11.50;;;1.20;81.30;;;;;;5134972;27;20200;-67
2022/03/09 04:40:18;;;;;;;13.60;10.98;;;1.10;81.60;;;;;;5134636;27;20278;-67
2022/03/09 04:42:45;;;;;;;17.02;12.00;;;1.10;82.00;;;;;;5134941;27;20709;-67
2022/03/09 04:45:12;;;;;;;24.10;13.70;;;1.00;82.40;;;;;;5135004;27;20228;-67
2022/03/09 04:47:39;;;;;;;19.70;11.95;;;1.00;82.20;;;;;;5134662;27;20248;-67
2022/03/09 04:50:06;;;;;;;14.70;10.38;;;0.90;82.60;;;;;;5134484;27;20197;-68
2022/03/09 04:55:09;;;;;;;15.82;11.13;;;1.00;82.70;;;;;;5169309;22;20238;-68
2022/03/09 04:57:38;;;;;;;18.00;11.02;;;0.90;82.70;;;;;;5053363;28;20222;-68
2022/03/09 05:00:06;;;;;;;14.63;9.73;;;0.80;83.00;;;;;;5053686;28;20207;-68
2022/03/09 05:02:33;;;;;;;16.08;10.30;;;0.80;83.50;;;;;;5053364;28;20298;-68
2022/03/09 05:05:00;;;;;;;17.80;11.00;;;0.80;83.20;;;;;;5052921;28;20233;-68
2022/03/09 05:07:26;;;;;;;17.25;11.63;;;0.90;82.20;;;;;;5053288;28;20744;-67
2022/03/09 05:09:53;;;;;;;20.00;11.48;;;0.90;82.10;;;;;;5053214;28;20206;-68
2022/03/09 05:12:20;;;;;;;16.38;10.82;;;0.80;82.20;;;;;;5053468;28;20680;-68
2022/03/09 05:14:48;;;;;;;17.20;11.00;;;0.80;82.20;;;;;;5052980;28;20222;-68
2022/03/09 05:17:15;;;;;;;17.23;11.45;;;0.60;83.20;;;;;;5053481;28;20295;-68
2022/03/09 05:19:42;;;;;;;17.10;11.48;;;0.70;84.90;;;;;;5053570;28;20213;-68
2022/03/09 05:22:09;;;;;;;18.52;12.70;;;0.70;85.20;;;;;;5053320;28;20297;-67
2022/03/09 05:24:35;;;;;;;20.30;12.63;;;0.70;85.40;;;;;;5052638;28;20642;-68
2022/03/09 05:27:02;;;;;;;19.92;12.82;;;0.80;85.80;;;;;;5053361;28;20241;-68
2022/03/09 05:29:29;;;;;;;19.35;12.20;;;0.70;86.10;;;;;;5053382;28;20211;-68
2022/03/09 05:31:57;;;;;;;28.00;12.82;;;0.80;86.60;;;;;;5053308;28;20290;-68
2022/03/09 05:34:24;;;;;;;18.25;11.73;;;0.80;86.40;;;;;;5052526;28;20657;-68
2022/03/09 05:36:51;;;;;;;19.17;11.85;;;0.80;86.80;;;;;;5055847;28;20234;-68
2022/03/09 05:39:18;;;;;;;19.20;13.10;;;0.90;87.30;;;;;;5056964;28;20290;-68
2022/03/09 05:41:45;;;;;;;19.33;13.20;;;0.90;87.40;;;;;;5057164;28;20214;-68
2022/03/09 05:44:12;;;;;;;20.92;12.80;;;0.90;87.30;;;;;;5056638;28;20207;-68
2022/03/09 05:46:38;;;;;;;24.08;12.82;;;0.90;86.80;;;;;;5057060;28;20625;-68
2022/03/09 05:49:07;;;;;;;21.25;13.30;;;0.90;86.80;;;;;;5057265;28;20299;-68
2022/03/09 05:51:34;;;;;;;18.27;12.27;;;0.80;86.90;;;;;;5056559;28;20294;-68
2022/03/09 05:54:00;;;;;;;19.38;12.68;;;0.80;87.20;;;;;;5056467;28;20199;-68
2022/03/09 05:56:27;;;;;;;20.52;13.77;;;0.90;87.40;;;;;;5056484;28;20593;-68
2022/03/09 05:58:54;;;;;;;23.02;13.13;;;0.80;88.00;;;;;;5056860;28;20203;-68
2022/03/09 06:01:23;;;;;;;21.63;13.07;;;0.70;88.20;;;;;;5056763;28;20279;-68
2022/03/09 06:03:50;;;;;;;21.50;13.15;;;0.60;88.90;;;;;;5056181;28;20242;-68
2022/03/09 06:06:18;;;;;;;18.73;12.85;;;0.40;89.70;;;;;;5056277;28;20227;-68
2022/03/09 06:08:45;;;;;;;23.35;11.70;;;0.30;90.20;;;;;;5056436;28;20732;-68
2022/03/09 06:11:12;;;;;;;18.73;12.02;;;0.40;90.30;;;;;;5056670;28;20242;-68
2022/03/09 06:13:38;;;;;;;19.73;12.48;;;0.50;90.30;;;;;;5055957;28;20199;-68
2022/03/09 06:16:06;;;;;;;15.80;11.38;;;0.50;90.30;;;;;;5056131;28;20700;-68
2022/03/09 06:18:33;;;;;;;18.30;11.68;;;0.40;90.30;;;;;;5056422;28;20295;-68
2022/03/09 06:21:00;;;;;;;22.65;12.85;;;0.50;90.10;;;;;;5056410;28;20310;-68
2022/03/09 06:23:28;;;;;;;18.73;11.40;;;0.50;89.70;;;;;;5055935;28;20204;-67
2022/03/09 06:25:55;;;;;;;19.23;11.80;;;0.60;89.00;;;;;;5056255;28;20255;-68
2022/03/09 06:28:22;;;;;;;19.40;11.90;;;0.60;88.80;;;;;;5056318;28;20229;-68
2022/03/09 06:30:49;;;;;;;20.05;11.77;;;0.70;88.90;;;;;;5056188;28;20214;-68
2022/03/09 06:33:16;;;;;;;20.58;11.80;;;0.80;88.50;;;;;;5055740;28;20212;-68
2022/03/09 06:35:43;;;;;;;18.58;11.80;;;0.80;87.80;;;;;;5056101;28;20223;-68
2022/03/09 06:38:09;;;;;;;20.73;11.80;;;0.80;87.40;;;;;;5055941;28;20214;-68
2022/03/09 06:40:37;;;;;;;18.20;11.27;;;0.70;87.70;;;;;;5056080;28;20214;-68
2022/03/09 06:43:04;;;;;;;17.80;12.23;;;0.70;88.80;;;;;;5055485;28;20298;-69
2022/03/09 06:45:31;;;;;;;21.33;12.30;;;0.80;89.30;;;;;;5055838;28;20227;-68
2022/03/09 06:47:58;;;;;;;17.10;12.07;;;0.80;89.10;;;;;;5055973;28;20617;-68
2022/03/09 06:50:25;;;;;;;18.80;12.75;;;0.90;89.00;;;;;;5055923;28;20199;-68
2022/03/09 06:52:52;;;;;;;19.13;12.20;;;1.00;88.40;;;;;;5055861;28;20203;-68
2022/03/09 06:55:19;;;;;;;17.33;13.38;;;1.00;88.90;;;;;;5054375;28;20235;-69
2022/03/09 06:57:47;;;;;;;19.92;13.00;;;1.00;89.20;;;;;;5053503;28;20211;-69
2022/03/09 07:00:15;;;;;;;20.70;13.23;;;0.80;89.70;;;;;;5054584;28;20206;-68
2022/03/09 07:02:43;;;;;;;22.73;15.30;;;0.60;90.20;;;;;;5054693;28;20210;-68
2022/03/09 07:05:11;;;;;;;20.77;13.13;;;0.30;90.80;;;;;;5054107;28;20230;-69
2022/03/09 07:07:38;;;;;;;20.25;12.90;;;0.40;91.20;;;;;;5054449;28;20204;-69
2022/03/09 07:10:10;;;;;;;22.75;14.15;;;0.40;91.20;;;;;;5054227;28;20214;-69
2022/03/09 07:12:37;;;;;;;18.88;14.05;;;0.50;91.00;;;;;;5054146;28;20199;-69
2022/03/09 07:15:06;;;;;;;21.90;14.35;;;0.70;90.80;;;;;;5054036;28;20311;-69
2022/03/09 07:17:34;;;;;;;20.23;13.40;;;0.90;90.80;;;;;;5054129;28;20294;-69
2022/03/09 07:20:01;;;;;;;18.85;12.98;;;0.90;90.40;;;;;;5054016;28;20203;-70
2022/03/09 07:22:28;;;;;;;18.75;12.65;;;0.90;90.00;;;;;;5054033;28;20290;-71
2022/03/09 07:24:55;;;;;;;22.15;13.57;;;0.90;89.60;;;;;;5053611;28;20224;-70
2022/03/09 07:27:22;;;;;;;21.98;13.68;;;1.00;90.10;;;;;;5053756;28;20203;-68
2022/03/09 07:29:49;;;;;;;26.52;14.38;;;1.10;90.30;;;;;;5053946;28;20225;-68
2022/03/09 07:32:17;;;;;;;23.42;15.40;;;1.20;90.10;;;;;;5053686;28;20294;-69
2022/03/09 07:34:44;;;;;;;23.20;14.88;;;1.10;88.80;;;;;;5053720;28;20652;-68
2022/03/09 07:37:11;;;;;;;23.15;14.10;;;1.00;89.80;;;;;;5053725;28;20298;-68
2022/03/09 07:39:38;;;;;;;25.67;16.23;;;0.80;90.40;;;;;;5053686;28;20206;-68
2022/03/09 07:42:05;;;;;;;24.42;15.40;;;0.60;90.30;;;;;;5053576;28;20207;-68
2022/03/09 07:44:32;;;;;;;22.35;14.95;;;0.60;90.20;;;;;;5053591;28;20202;-68
2022/03/09 07:46:59;;;;;;;20.45;14.07;;;0.60;90.70;;;;;;5053452;28;20223;-69
2022/03/09 07:49:27;;;;;;;21.67;14.25;;;0.80;90.70;;;;;;5053600;28;20294;-68
2022/03/09 07:51:54;;;;;;;23.77;15.65;;;1.00;90.10;;;;;;5053450;28;20210;-68
2022/03/09 07:54:21;;;;;;;26.27;15.73;;;1.20;89.50;;;;;;5052887;28;20231;-69
2022/03/09 07:56:49;;;;;;;24.63;16.30;;;1.30;88.10;;;;;;5053499;28;20679;-68
2022/03/09 07:59:16;;;;;;;25.45;15.43;;;1.50;87.60;;;;;;5052751;28;20211;-68
2022/03/09 08:01:43;;;;;;;25.15;15.35;;;1.60;87.20;;;;;;5053324;28;20213;-68
2022/03/09 08:04:10;;;;;;;25.80;15.65;;;1.70;86.80;;;;;;5052948;28;20211;-67
2022/03/09 08:06:40;;;;;;;24.55;14.80;;;1.60;86.20;;;;;;5053032;28;20227;-67
2022/03/09 08:09:08;;;;;;;23.73;15.25;;;1.80;85.80;;;;;;5052986;28;20688;-68
2022/03/09 08:11:35;;;;;;;19.42;13.65;;;1.80;85.60;;;;;;5052977;28;20218;-68
2022/03/09 08:14:02;;;;;;;24.13;15.52;;;1.90;84.40;;;;;;5052743;28;20295;-68
2022/03/09 08:16:28;;;;;;;24.20;15.15;;;2.00;83.80;;;;;;5052957;28;20219;-68
2022/03/09 08:18:55;;;;;;;22.00;15.73;;;2.00;84.20;;;;;;5052990;28;20295;-68
2022/03/09 08:21:22;;;;;;;22.05;16.50;;;2.10;84.40;;;;;;5052507;28;20205;-68
2022/03/09 08:23:50;;;;;;;25.05;16.58;;;2.20;84.10;;;;;;5053200;28;20203;-68
2022/03/09 08:26:17;;;;;;;32.38;17.58;;;2.20;83.80;;;;;;5053038;28;20657;-68
2022/03/09 08:28:44;;;;;;;24.40;17.05;;;2.30;84.80;;;;;;5052918;28;20290;-68
2022/03/09 08:31:11;;;;;;;26.05;17.23;;;2.30;84.80;;;;;;5052382;28;20294;-68
2022/03/09 08:33:38;;;;;;;28.83;16.63;;;2.50;84.50;;;;;;5052569;28;20199;-68
2022/03/09 08:36:05;;;;;;;24.27;14.73;;;2.50;83.80;;;;;;5052330;28;20230;-68
2022/03/09 08:38:33;;;;;;;26.77;17.33;;;2.50;82.80;;;;;;5052862;28;20226;-67
2022/03/09 08:41:01;;;;;;;25.88;16.35;;;2.70;83.20;;;;;;5052386;28;20203;-67
2022/03/09 08:43:28;;;;;;;23.48;15.23;;;3.00;82.50;;;;;;5052365;28;20572;-68
2022/03/09 08:45:54;;;;;;;23.52;15.25;;;3.40;81.20;;;;;;5052383;28;20314;-68
2022/03/09 08:48:21;;;;;;;20.83;14.70;;;3.40;80.30;;;;;;5052514;28;20688;-68
2022/03/09 08:50:48;;;;;;;20.63;14.40;;;3.40;78.50;;;;;;5052190;28;20221;-68
2022/03/09 08:53:16;;;;;;;23.83;15.50;;;3.40;78.80;;;;;;5052349;28;20294;-68
2022/03/09 08:55:42;;;;;;;23.42;13.50;;;3.40;78.70;;;;;;5052345;28;20261;-68
2022/03/09 08:58:11;;;;;;;22.63;12.20;;;3.50;77.90;;;;;;5052491;28;20212;-67
2022/03/09 09:00:37;;;;;;;24.88;14.52;;;3.70;77.40;;;;;;5052322;28;20568;-68
2022/03/09 09:03:05;;;;;;;19.67;14.18;;;3.80;76.50;;;;;;5052201;28;20296;-67
2022/03/09 09:05:31;;;;;;;21.67;15.32;;;3.90;75.50;;;;;;5052307;28;20587;-68
2022/03/09 09:07:59;;;;;;;21.77;14.80;;;4.00;75.60;;;;;;5052387;28;20636;-68
2022/03/09 09:10:25;;;;;;;20.60;13.38;;;4.10;75.80;;;;;;5051153;28;20200;-68
2022/03/09 09:12:54;;;;;;;20.83;14.63;;;4.40;73.90;;;;;;5052267;28;20291;-68
2022/03/09 09:15:24;;;;;;;21.90;14.25;;;4.80;72.20;;;;;;5052031;28;20310;-67
2022/03/09 09:17:57;;;;;;;19.55;14.10;;;5.10;71.70;;;;;;5052551;28;20276;-67
2022/03/09 09:20:25;;;;;;;19.98;14.23;;;5.20;69.40;;;;;;5052033;28;20203;-68
2022/03/09 09:22:52;;;;;;;21.52;13.13;;;5.20;69.00;;;;;;5051948;28;20278;-68
2022/03/09 09:25:20;;;;;;;20.38;14.10;;;5.10;71.20;;;;;;5051559;28;20588;-68
2022/03/09 09:27:47;;;;;;;18.15;13.25;;;4.90;70.90;;;;;;5051801;28;20214;-69
2022/03/09 09:30:14;;;;;;;21.45;15.15;;;4.90;70.20;;;;;;5051633;28;20660;-68
2022/03/09 09:32:42;;;;;;;20.73;13.95;;;5.00;71.00;;;;;;5051612;28;20768;-68
2022/03/09 09:35:10;;;;;;;19.67;13.80;;;5.10;70.20;;;;;;5051608;28;20226;-67
2022/03/09 09:37:37;;;;;;;22.50;15.23;;;5.10;69.60;;;;;;5051765;28;20203;-67
2022/03/09 09:40:06;;;;;;;20.75;14.60;;;5.30;69.30;;;;;;5052017;28;20199;-67
2022/03/09 09:42:33;;;;;;;21.80;15.35;;;5.30;69.60;;;;;;5053084;28;20203;-67
2022/03/09 09:45:00;;;;;;;22.73;15.30;;;5.40;69.70;;;;;;5053058;28;20223;-67
2022/03/09 09:47:28;;;;;;;22.92;14.57;;;5.40;68.50;;;;;;5053033;28;20223;-67
2022/03/09 09:49:57;;;;;;;20.80;14.40;;;5.60;69.70;;;;;;5052975;28;20203;-67
2022/03/09 09:52:26;;;;;;;22.80;15.38;;;5.70;69.80;;;;;;5053095;28;20254;-67
2022/03/09 09:54:55;;;;;;;20.80;14.30;;;5.90;68.80;;;;;;5052659;28;20235;-65
2022/03/09 09:57:22;;;;;;;20.02;14.20;;;6.20;67.20;;;;;;5053238;28;20210;-65
2022/03/09 09:59:50;;;;;;;20.83;13.80;;;6.40;65.50;;;;;;5053036;28;20199;-67
2022/03/09 10:02:17;;;;;;;19.35;13.90;;;6.60;66.00;;;;;;5052800;28;20199;-67
2022/03/09 10:04:46;;;;;;;20.77;13.68;;;6.70;65.40;;;;;;5052853;28;20314;-67
2022/03/09 10:07:15;;;;;;;18.85;13.52;;;6.80;64.30;;;;;;5052934;28;20223;-67
2022/03/09 10:09:42;;;;;;;22.35;14.85;;;6.80;63.40;;;;;;5052909;28;20227;-67
2022/03/09 10:12:10;;;;;;;18.50;13.68;;;7.00;63.40;;;;;;5052975;28;20200;-67
2022/03/09 10:14:42;;;;;;;17.42;13.90;;;7.20;62.40;;;;;;5052560;28;20665;-67
2022/03/09 10:17:11;;;;;;;21.60;14.00;;;7.40;62.10;;;;;;5052931;28;20282;-67
2022/03/09 10:19:40;;;;;;;19.10;14.18;;;8.10;60.90;;;;;;5052705;28;20207;-67
2022/03/09 10:22:30;;;;;;;20.77;15.75;;;9.30;59.10;;;;;;5054114;28;20199;-67
2022/03/09 10:24:59;;;;;;;21.55;14.75;;;10.60;55.00;;;;;;5056182;28;20220;-64
2022/03/09 10:27:35;;;;;;;20.75;14.10;;;11.40;52.40;;;;;;5056245;28;20246;-65
2022/03/09 10:30:02;;;;;;;24.13;15.13;;;11.80;50.90;;;;;;5056303;28;20575;-65
2022/03/09 10:32:43;;;;;;;19.80;14.93;;;12.50;49.60;;;;;;5056240;28;20298;-65
2022/03/09 10:35:10;;;;;;;22.13;15.55;;;12.70;47.60;;;;;;5056100;28;20228;-65
2022/03/09 10:37:42;;;;;;;20.63;15.30;;;13.10;47.30;;;;;;5056165;28;20576;-65
2022/03/09 10:40:11;;;;;;;20.25;16.15;;;13.40;46.70;;;;;;5056123;28;20291;-66
2022/03/09 10:42:38;;;;;;;19.85;15.32;;;14.00;45.90;;;;;;5056059;28;20212;-66
2022/03/09 10:45:07;;;;;;;20.63;15.50;;;14.50;43.80;;;;;;5055712;28;20317;-66
2022/03/09 10:47:35;;;;;;;18.80;15.23;;;14.60;42.90;;;;;;5055880;28;20235;-65
2022/03/09 10:50:17;;;;;;;19.65;16.05;;;14.40;42.40;;;;;;5055872;28;20295;-65
2022/03/09 10:52:48;;;;;;;20.40;15.45;;;13.90;41.90;;;;;;5055765;28;20208;-65
2022/03/09 10:55:22;;;;;;;19.98;15.02;;;14.00;42.10;;;;;;5055373;28;20242;-65
2022/03/09 10:57:50;;;;;;;19.60;15.05;;;13.70;42.20;;;;;;5055751;28;20199;-66
2022/03/09 11:00:34;;;;;;;19.35;15.27;;;13.40;42.30;;;;;;5055765;28;20298;-66
2022/03/09 11:03:06;;;;;;;19.83;15.57;;;13.30;42.30;;;;;;5055547;28;20207;-65
2022/03/09 11:05:33;;;;;;;20.05;15.75;;;13.60;42.30;;;;;;5055582;28;20231;-65
2022/03/09 11:08:02;;;;;;;19.10;15.52;;;13.80;41.80;;;;;;5055581;28;20222;-66
2022/03/09 11:10:29;;;;;;;19.30;15.65;;;14.00;42.20;;;;;;5055513;28;20544;-65
2022/03/09 11:12:56;;;;;;;22.35;17.00;;;14.80;41.80;;;;;;5055436;28;20217;-66
2022/03/09 11:15:24;;;;;;;19.95;16.60;;;15.30;40.40;;;;;;5055382;28;20227;-66
2022/03/09 11:17:51;;;;;;;24.48;16.77;;;16.00;38.20;;;;;;5055682;28;20202;-65
2022/03/09 11:20:19;;;;;;;22.75;16.58;;;16.20;36.80;;;;;;5055372;28;20210;-65
2022/03/09 11:22:46;;;;;;;20.10;16.88;;;16.60;35.40;;;;;;5055176;28;20253;-66
2022/03/09 11:25:15;;;;;;;20.35;16.45;;;17.20;34.20;;;;;;5054726;28;20235;-66
2022/03/09 11:27:46;;;;;;;21.20;16.30;;;17.80;34.40;;;;;;5055112;28;20233;-66
2022/03/09 11:30:24;;;;;;;20.40;16.60;;;18.70;34.00;;;;;;5055153;28;20441;-66
2022/03/09 11:32:51;;;;;;;18.40;15.87;;;18.70;32.30;;;;;;5054658;28;20444;-66
2022/03/09 11:35:38;;;;;;;18.37;15.60;;;19.40;33.20;;;;;;5054345;28;20477;-66
2022/03/09 11:38:41;;;;;;;18.30;16.40;;;20.40;31.50;;;;;;5055261;28;20446;-66
2022/03/09 11:41:19;;;;;;;21.87;16.87;;;20.80;30.70;;;;;;5055091;28;20506;-66
2022/03/09 11:43:47;;;;;;;21.27;17.60;;;20.20;30.40;;;;;;5054765;28;20443;-66
2022/03/09 11:46:13;;;;;;;19.50;16.47;;;19.70;30.00;;;;;;5054768;28;20465;-66
2022/03/09 11:48:52;;;;;;;19.33;16.50;;;19.80;31.20;;;;;;5054822;28;20531;-66
2022/03/09 11:51:19;;;;;;;22.58;18.52;;;19.50;30.20;;;;;;5054635;28;20967;-66
2022/03/09 11:53:48;;;;;;;20.70;17.45;;;18.90;30.70;;;;;;5054375;28;20246;-65
2022/03/09 11:56:31;;;;;;;21.42;17.15;;;17.90;30.60;;;;;;5054484;28;20318;-66
2022/03/09 11:59:16;;;;;;;18.90;16.60;;;16.60;31.00;;;;;;5054503;28;20205;-66
2022/03/09 12:02:14;;;;;;;21.77;16.10;;;15.40;32.80;;;;;;5054594;28;20288;-65
2022/03/09 12:04:52;;;;;;;18.85;14.45;;;14.50;33.60;;;;;;5054275;28;20234;-65
2022/03/09 12:07:59;;;;;;;20.42;15.25;;;13.90;33.10;;;;;;5054709;28;20209;-66
2022/03/09 12:10:50;;;;;;;18.60;15.00;;;14.20;34.30;;;;;;5054266;28;20201;-66
2022/03/09 12:13:25;;;;;;;19.63;16.05;;;15.20;34.30;;;;;;5054371;28;20212;-65
2022/03/09 12:16:15;;;;;;;20.75;15.63;;;16.20;34.50;;;;;;5054274;28;20458;-66
2022/03/09 12:18:45;;;;;;;17.47;15.53;;;17.40;31.90;;;;;;5054252;28;20608;-66
2022/03/09 12:21:13;;;;;;;18.90;15.97;;;18.50;31.50;;;;;;5054447;28;20463;-66
2022/03/09 12:24:26;;;;;;;21.07;16.50;;;19.30;30.00;;;;;;5053808;28;20953;-66
2022/03/09 12:26:54;;;;;;;18.70;16.03;;;19.20;29.90;;;;;;5054110;28;20472;-66
2022/03/09 12:29:43;;;;;;;18.40;15.50;;;18.40;30.10;;;;;;5054002;28;20839;-66
2022/03/09 12:32:14;;;;;;;20.67;16.33;;;18.50;30.30;;;;;;5054059;28;20435;-66
2022/03/09 12:34:44;;;;;;;18.40;16.37;;;19.10;31.00;;;;;;5053760;28;20506;-66
2022/03/09 12:37:13;;;;;;;19.30;16.33;;;18.60;29.60;;;;;;5054250;28;20448;-66
2022/03/09 12:39:40;;;;;;;19.93;17.03;;;18.70;30.60;;;;;;5053830;28;20458;-66
2022/03/09 12:42:08;;;;;;;19.13;16.47;;;18.20;31.00;;;;;;5053829;28;20538;-66
2022/03/09 12:44:36;;;;;;;20.63;16.80;;;17.80;32.00;;;;;;5053440;28;20446;-66
2022/03/09 12:47:06;;;;;;;20.08;16.13;;;17.10;31.90;;;;;;5053768;28;20231;-66
2022/03/09 12:49:36;;;;;;;19.63;16.80;;;16.40;32.70;;;;;;5053776;28;20214;-66